GW3122 Weather Reports


Display with metric or nautical units.
time (UTC)temp
F
wind
direction
speed
MPH
gust
MPH
rain 1hr
in
rain 24hr
in
rain mn
in
humidity
%
barometer
mb
20240420140019 38 319 3.0 15.0 0.00 0.48 0.39 87 1014.0
20240420134516 38 313 7.0 19.0 0.00 0.48 0.39 87 1013.7
20240420133008 38 301 5.0 17.0 0.00 0.48 0.39 88 1013.4
20240420131501 39 18 2.0 15.0 0.00 0.48 0.39 88 1013.0
20240420130051 39 348 5.0 17.0 0.00 0.48 0.39 90 1012.8
20240420124540 39 296 5.0 15.0 0.01 0.48 0.39 89 1012.5
20240420123040 39 339 5.0 13.0 0.02 0.48 0.39 89 1012.2
20240420121536 39 273 6.0 16.0 0.04 0.48 0.39 89 1011.9
20240420120015 39 9 5.0 16.0 0.03 0.49 0.38 90 1011.5
20240420114514 39 321 3.0 11.0 0.05 0.49 0.38 90 1011.3
20240420113010 39 267 4.0 12.0 0.07 0.48 0.37 90 1011.1
20240420111505 39 290 6.0 14.0 0.08 0.46 0.35 89 1010.8
20240420110045 40 324 5.0 15.0 0.12 0.47 0.35 89 1010.5
20240420104546 41 349 6.0 12.0 0.15 0.45 0.33 89 1010.0
20240420103046 42 348 1.0 5.0 0.14 0.42 0.30 90 1009.6
20240420101542 42 338 1.0 5.0 0.12 0.39 0.27 89 1009.4
20240420100020 41 297 1.0 9.0 0.10 0.39 0.22 89 1009.4
20240420094510 42 335 3.0 16.0 0.07 0.35 0.18 88 1009.2
20240420093009 42 338 3.0 9.0 0.06 0.33 0.16 87 1009.0
20240420091515 43 313 5.0 12.0 0.05 0.32 0.15 87 1008.8
20240420090050 44 258 2.0 8.0 0.03 0.28 0.12 88 1008.4
20240420084537 43 339 2.0 4.0 0.04 0.28 0.11 88 1008.2
20240420083029 43 317 1.0 5.0 0.03 0.27 0.10 88 1008.0
20240420081525 42 269 1.0 8.0 0.04 0.27 0.10 88 1007.7
20240420080004 42 272 1.0 5.0 0.03 0.26 0.09 87 1007.6
20240420074603 42 267 2.0 7.0 0.01 0.24 0.07 86 1007.4
20240420073100 42 316 2.0 4.0 0.01 0.24 0.07 88 1007.2
20240420071554 42 360 3.0 7.0 0.00 0.23 0.06 90 1006.9
20240420070039 41 223 2.0 8.0 0.00 0.24 0.06 90 1006.7
20240420064537 41 263 2.0 8.0 0.00 0.24 0.06 90 1006.5
20240420063029 41 286 3.0 8.0 0.01 0.24 0.06 90 1006.3
20240420061520 40 270 2.0 6.0 0.01 0.24 0.06 90 1006.1
20240420060101 40 319 4.0 8.0 0.01 0.24 0.06 90 1006.0
20240420054546 40 227 3.0 8.0 0.01 0.24 0.06 90 1005.9
20240420053043 40 254 3.0 9.0 0.00 0.23 0.05 90 1005.7
20240420051534 40 213 2.0 9.0 0.00 0.23 0.05 90 1005.5
20240420050011 40 253 3.0 8.0 0.01 0.23 0.05 90 1005.4
20240420044506 40 234 3.0 10.0 0.01 0.23 0.05 90 1005.1
20240420043106 40 250 3.0 7.0 0.02 0.23 0.05 90 1004.9
20240420041606 40 215 0.0 3.0 0.03 0.23 0.05 90 1004.8
20240420040040 40 229 0.0 4.0 0.02 0.22 0.04 90 1004.5
20240420034539 40 219 0.0 4.0 0.02 0.22 0.04 90 1004.4
20240420033045 40 211 2.0 4.0 0.01 0.21 0.03 90 1004.3
20240420031531 40 234 1.0 5.0 0.01 0.20 0.02 89 1004.1
20240420030013 40 184 1.0 5.0 0.01 0.20 0.02 89 1004.1
20240420024513 40 213 1.0 5.0 0.01 0.20 0.02 89 1004.0
20240420023013 40 207 2.0 4.0 0.01 0.20 0.02 89 1003.9
20240420021502 40 209 2.0 4.0 0.00 0.19 0.01 88 1003.9
20240420020046 40 248 1.0 5.0 0.00 0.19 0.01 88 1003.7
20240420014548 40 186 1.0 5.0 0.00 0.19 0.01 88 1003.6
20240420013058 40 211 2.0 5.0 0.00 0.19 0.01 88 1003.6
20240420011541 40 207 1.0 4.0 0.00 0.19 0.01 88 1003.5
20240420010016 40 180 1.0 5.0 0.00 0.19 0.01 88 1003.4
20240420004520 40 211 1.0 4.0 0.00 0.19 0.01 88 1003.4
20240420003022 40 188 1.0 4.0 0.00 0.19 0.01 87 1003.3
20240420001528 40 205 2.0 4.0 0.00 0.19 0.01 87 1003.2
20240420000108 40 194 2.0 5.0 0.00 0.19 0.01 87 1003.2
20240419234559 40 230 2.0 4.0 0.00 0.19 0.01 87 1003.2
20240419233059 40 205 2.0 5.0 0.01 0.19 0.01 87 1003.3
20240419231604 40 240 2.0 6.0 0.01 0.19 0.01 87 1003.3
20240419230046 40 199 1.0 7.0 0.01 0.19 0.01 87 1003.3
20240419224531 40 195 2.0 6.0 0.01 0.19 0.01 88 1003.3
20240419223029 40 182 1.0 6.0 0.00 0.18 0.00 88 1003.2
20240419221529 40 170 2.0 7.0 0.00 0.18 0.00 88 1003.2
20240419220001 40 165 3.0 6.0 0.00 0.18 0.18 89 1003.2
20240419214501 40 198 2.0 6.0 0.00 0.18 0.18 89 1003.0
20240419213102 40 178 2.0 4.0 0.00 0.18 0.18 89 1003.2
20240419211603 40 190 2.0 4.0 0.00 0.18 0.18 89 1003.2
20240419210051 40 192 3.0 6.0 0.00 0.18 0.18 89 1003.2
20240419204543 40 202 1.0 4.0 0.00 0.18 0.18 88 1003.2
20240419203047 40 192 2.0 4.0 0.00 0.18 0.18 88 1003.1
20240419201537 41 201 0.0 3.0 0.00 0.18 0.18 88 1003.2
20240419200022 41 207 1.0 5.0 0.00 0.19 0.18 88 1003.2
20240419194509 41 194 1.0 6.0 0.00 0.19 0.18 87 1003.2
20240419193008 41 230 3.0 7.0 0.01 0.19 0.18 87 1003.2
20240419191512 41 242 5.0 13.0 0.01 0.19 0.18 87 1003.4
20240419190053 41 236 2.0 7.0 0.01 0.19 0.18 87 1003.3
20240419184548 40 219 2.0 6.0 0.03 0.19 0.18 87 1003.2
20240419183050 40 215 1.0 4.0 0.03 0.18 0.17 86 1003.1
20240419181547 41 198 2.0 7.0 0.05 0.18 0.17 85 1003.1
20240419180017 41 202 3.0 11.0 0.06 0.19 0.17 84 1003.0
20240419174528 42 255 1.0 5.0 0.05 0.17 0.15 84 1003.0
20240419173011 43 259 4.0 9.0 0.04 0.16 0.14 81 1003.0
20240419171510 44 217 5.0 12.0 0.02 0.14 0.12 77 1002.9
20240419170054 44 256 2.0 8.0 0.01 0.13 0.11 76 1002.8
20240419164554 44 175 6.0 10.0 0.00 0.12 0.10 75 1002.9
20240419163105 44 196 3.0 8.0 0.00 0.12 0.10 75 1003.0
20240419161547 44 204 5.0 12.0 0.00 0.12 0.10 75 1003.3
20240419160021 45 221 6.0 18.0 0.00 0.12 0.10 73 1003.5
20240419154522 46 222 5.0 14.0 0.00 0.12 0.10 70 1003.5
20240419153018 46 198 8.0 17.0 0.00 0.12 0.10 67 1003.4
20240419151514 46 139 6.0 12.0 0.01 0.12 0.10 72 1003.6
20240419150105 45 238 3.0 9.0 0.01 0.12 0.10 76 1003.7
20240419144602 44 175 4.0 9.0 0.01 0.12 0.10 76 1004.0
20240419143056 44 232 2.0 10.0 0.01 0.12 0.10 77 1004.3
20240419141552 47 195 6.0 19.0 0.00 0.11 0.09 70 1004.6